createdAt,value
2022-11-05T00:02:15.551Z,4.43
2022-11-05T00:06:16.229Z,4.50
2022-11-05T00:10:03.943Z,4.93
2022-11-05T00:14:04.628Z,4.53
2022-11-05T00:17:46.651Z,3.88
2022-11-05T00:21:47.514Z,4.40
2022-11-05T00:25:30.503Z,5.05
2022-11-05T00:29:12.564Z,4.35
2022-11-05T00:33:01.090Z,4.47
2022-11-05T00:36:43.120Z,4.22
2022-11-05T00:40:25.142Z,3.72
2022-11-05T00:44:26.291Z,3.78
2022-11-05T00:52:35.202Z,2.50
2022-11-05T00:56:17.578Z,2.63
2022-11-05T00:59:59.602Z,2.47
2022-11-05T01:03:41.626Z,2.25
2022-11-05T01:07:23.731Z,2.70
2022-11-05T01:11:11.813Z,2.25
2022-11-05T01:14:53.924Z,2.90
2022-11-05T01:18:38.970Z,2.80
2022-11-05T01:22:21.033Z,2.90
2022-11-05T01:26:02.999Z,3.08
2022-11-05T01:29:45.074Z,3.17
2022-11-05T01:33:27.108Z,3.40
2022-11-05T01:37:09.062Z,2.75
2022-11-05T01:40:51.119Z,2.72
2022-11-05T01:44:57.377Z,2.70
2022-11-05T01:48:40.174Z,2.70
2022-11-05T01:52:24.338Z,2.67
2022-11-05T01:56:19.324Z,2.20
2022-11-05T02:00:02.422Z,2.30
2022-11-05T02:03:45.851Z,2.20
2022-11-05T02:07:29.449Z,2.30
2022-11-05T02:11:14.374Z,2.25
2022-11-05T02:14:57.389Z,2.13
2022-11-05T02:19:05.044Z,2.25
2022-11-05T02:23:16.095Z,1.92
2022-11-05T02:27:34.450Z,2.30
2022-11-05T02:31:27.323Z,2.00
2022-11-05T02:35:27.133Z,2.42
2022-11-05T02:39:43.138Z,2.35
2022-11-05T02:44:06.945Z,1.90
2022-11-05T02:47:59.206Z,2.08
2022-11-05T02:52:00.634Z,1.80
2022-11-05T02:55:59.485Z,1.92
2022-11-05T02:59:41.477Z,2.25
2022-11-05T03:03:36.552Z,2.00
2022-11-05T03:07:39.883Z,2.28
2022-11-05T03:11:24.574Z,1.98
2022-11-05T03:15:53.191Z,2.10
2022-11-05T03:20:01.167Z,1.83
2022-11-05T03:23:50.470Z,1.55
2022-11-05T03:27:36.915Z,2.05
2022-11-05T03:31:20.653Z,1.67
2022-11-05T03:35:08.622Z,2.20
2022-11-05T03:38:53.214Z,1.83
2022-11-05T03:51:25.786Z,1.70
2022-11-05T03:55:07.873Z,1.42
2022-11-05T03:58:54.656Z,1.90
2022-11-05T04:02:39.759Z,1.57
2022-11-05T04:06:40.469Z,1.70
2022-11-05T04:10:41.367Z,1.83
2022-11-05T04:14:23.509Z,1.70
2022-11-05T04:18:05.456Z,1.63
2022-11-05T04:22:05.938Z,1.58
2022-11-05T04:25:47.843Z,1.60
2022-11-05T04:29:48.250Z,1.20
2022-11-05T04:33:30.238Z,1.83
2022-11-05T04:37:12.214Z,1.90
2022-11-05T04:41:11.819Z,1.45
2022-11-05T04:44:56.918Z,1.88
2022-11-05T04:48:39.277Z,1.55
2022-11-05T04:52:21.737Z,1.48
2022-11-05T04:56:18.709Z,1.35
2022-11-05T05:00:00.799Z,1.60
2022-11-05T05:03:43.068Z,1.50
2022-11-05T05:07:25.991Z,1.42
2022-11-05T05:11:10.705Z,1.33
2022-11-05T05:14:52.665Z,2.05
2022-11-05T05:18:35.027Z,1.75
2022-11-05T05:22:17.052Z,1.95
2022-11-05T05:26:00.530Z,1.75
2022-11-05T05:29:42.483Z,1.42
2022-11-05T05:33:24.364Z,1.42
2022-11-05T05:37:06.987Z,1.50
2022-11-05T05:40:50.436Z,1.45
2022-11-05T05:44:32.695Z,1.20
2022-11-05T05:48:14.620Z,1.50
2022-11-05T05:51:56.996Z,1.55
2022-11-05T05:55:38.900Z,1.95
2022-11-05T05:59:21.357Z,1.92
2022-11-05T06:03:03.490Z,1.65
2022-11-05T06:06:47.071Z,1.38
2022-11-05T06:10:29.231Z,1.40
2022-11-05T06:14:12.614Z,1.63
2022-11-05T06:17:54.587Z,1.50
2022-11-05T06:21:36.687Z,1.45
2022-11-05T06:25:18.682Z,1.52
2022-11-05T06:29:00.659Z,1.42
2022-11-05T06:32:42.627Z,1.63
2022-11-05T06:36:24.644Z,1.70
2022-11-05T06:40:08.066Z,1.50
2022-11-05T06:43:50.065Z,1.13
2022-11-05T06:47:32.293Z,1.20
2022-11-05T06:51:14.250Z,1.25
2022-11-05T06:54:56.286Z,1.30
2022-11-05T06:58:38.408Z,1.30
2022-11-05T07:02:20.455Z,1.88
2022-11-05T07:06:03.724Z,1.40
2022-11-05T07:09:45.720Z,1.30
2022-11-05T07:13:27.895Z,1.05
2022-11-05T07:17:09.889Z,1.05
2022-11-05T07:20:51.867Z,2.45
2022-11-05T07:24:34.122Z,1.23
2022-11-05T07:28:16.124Z,1.77
2022-11-05T07:31:58.011Z,1.27
2022-11-05T07:35:39.970Z,1.48
2022-11-05T07:39:22.011Z,1.30
2022-11-05T07:43:04.082Z,1.77
2022-11-05T07:46:46.112Z,1.95
2022-11-05T07:50:30.953Z,1.23
2022-11-05T07:54:12.951Z,2.03
2022-11-05T07:57:55.069Z,2.40
2022-11-05T08:01:37.335Z,1.10
2022-11-05T08:05:19.431Z,2.03
2022-11-05T08:09:04.546Z,1.27
2022-11-05T08:12:46.728Z,1.10
2022-11-05T08:16:28.781Z,1.33
2022-11-05T08:20:12.033Z,1.27
2022-11-05T08:23:54.096Z,0.90
2022-11-05T08:27:36.308Z,1.15
2022-11-05T08:31:18.388Z,1.42
2022-11-05T08:35:00.445Z,1.02
2022-11-05T08:38:42.498Z,1.85
2022-11-05T08:42:24.559Z,1.15
2022-11-05T08:46:06.613Z,1.35
2022-11-05T08:49:48.719Z,1.02
2022-11-05T08:53:30.825Z,0.98
2022-11-05T08:57:12.875Z,0.70
2022-11-05T09:00:58.986Z,0.98
2022-11-05T09:04:44.431Z,0.93
2022-11-05T09:08:27.051Z,1.23
2022-11-05T09:12:13.061Z,1.10
2022-11-05T09:15:55.412Z,1.95
2022-11-05T09:19:40.069Z,1.15
2022-11-05T09:23:22.499Z,1.83
2022-11-05T09:27:04.551Z,1.30
2022-11-05T09:30:48.695Z,1.20
2022-11-05T09:34:30.748Z,1.35
2022-11-05T09:38:13.127Z,1.35
2022-11-05T09:42:00.350Z,1.65
2022-11-05T09:45:44.035Z,1.42
2022-11-05T09:49:42.652Z,1.15
2022-11-05T09:53:25.263Z,1.23
2022-11-05T09:57:12.880Z,1.30
2022-11-05T10:00:55.264Z,2.20
2022-11-05T10:04:39.049Z,1.40
2022-11-05T10:08:28.138Z,1.17
2022-11-05T10:12:18.461Z,1.20
2022-11-05T10:16:03.558Z,1.15
2022-11-05T10:19:51.889Z,1.10
2022-11-05T10:23:34.522Z,1.65
2022-11-05T10:27:24.660Z,1.30
2022-11-05T10:31:09.783Z,1.33
2022-11-05T10:34:53.840Z,1.23
2022-11-05T10:38:36.149Z,1.17
2022-11-05T10:42:26.675Z,1.92
2022-11-05T10:50:30.413Z,1.30
2022-11-05T10:54:24.185Z,1.40
2022-11-05T10:58:15.501Z,1.33
2022-11-05T11:02:11.913Z,1.38
2022-11-05T11:06:01.073Z,1.40
2022-11-05T11:09:49.256Z,0.98
2022-11-05T11:14:02.975Z,1.17
2022-11-05T11:17:44.987Z,1.42
2022-11-05T11:21:28.972Z,1.52
2022-11-05T11:25:38.891Z,1.73
2022-11-05T11:29:28.051Z,1.42
2022-11-05T11:33:13.117Z,1.27
2022-11-05T11:37:03.366Z,2.33
2022-11-05T11:40:48.500Z,2.15
